YSC weather

Sherbrooke Airport
Sherbrooke, Quebec, Canada

Public forecast

Using degrees Celsius for public forecast. Weather courtesy of forecast.io.

METAR (pilot weather report)

Retrieved 2019/05/24 03:44 UTC (0 seconds ago):

CYSC 240344Z AUTO VRB03KT 2 1/2SM +RA VCTS BR FEW007 BKN015 OVC020 13/12 A2958 RMK LTNG DIST SW PRESFR SLP018 DENSITY ALT 1100FT

TAF (pilot weather forecast)

Forecast is more than 12 hours old.

Retrieved 2019/05/23 00:00 UTC (1 day ago):

TAF CYSC 232338Z 2400/2403 13008KT P6SM -SHRA OVC040 TEMPO 2400/2401 5SM SHRA BR OVC020 FM240100 12010KT P6SM -SHRA SCT008 OVC040 TEMPO 2401/2403 21/2SM SHRA BR BKN008 OVC015 PROB40 2401/2403 VRB15G30KT 1SM +TSRA BR BKN006 OVC015CB RMK FCST BASED ON AUTO OBS. NXT FCST WILL BE ISSUED AT 241045Z